sensor_id;sensor_type;location;lat;lon;timestamp;P1;durP1;ratioP1;P2;durP2;ratioP2
15929;SDS011;8064;51.142;4.780;2023-04-30T00:00:59;7.03;;;6.43;;
15929;SDS011;8064;51.142;4.780;2023-04-30T00:03:25;9.23;;;6.60;;
15929;SDS011;8064;51.142;4.780;2023-04-30T00:05:51;6.67;;;6.03;;
15929;SDS011;8064;51.142;4.780;2023-04-30T00:08:17;7.57;;;6.87;;
15929;SDS011;8064;51.142;4.780;2023-04-30T00:10:43;6.90;;;6.37;;
15929;SDS011;8064;51.142;4.780;2023-04-30T00:13:09;7.03;;;6.33;;
15929;SDS011;8064;51.142;4.780;2023-04-30T00:15:37;6.87;;;6.10;;
15929;SDS011;8064;51.142;4.780;2023-04-30T00:18:03;6.60;;;5.90;;
15929;SDS011;8064;51.142;4.780;2023-04-30T00:20:31;6.93;;;6.23;;
15929;SDS011;8064;51.142;4.780;2023-04-30T00:22:59;6.93;;;6.07;;
15929;SDS011;8064;51.142;4.780;2023-04-30T00:25:24;6.80;;;6.27;;
15929;SDS011;8064;51.142;4.780;2023-04-30T00:27:50;6.47;;;5.87;;
15929;SDS011;8064;51.142;4.780;2023-04-30T00:30:16;6.57;;;5.63;;
15929;SDS011;8064;51.142;4.780;2023-04-30T00:32:42;6.73;;;6.10;;
15929;SDS011;8064;51.142;4.780;2023-04-30T00:35:09;6.40;;;5.80;;
15929;SDS011;8064;51.142;4.780;2023-04-30T00:37:35;6.20;;;5.57;;
15929;SDS011;8064;51.142;4.780;2023-04-30T00:40:01;6.03;;;5.53;;
15929;SDS011;8064;51.142;4.780;2023-04-30T00:42:27;6.60;;;5.93;;
15929;SDS011;8064;51.142;4.780;2023-04-30T00:44:53;7.00;;;6.50;;
15929;SDS011;8064;51.142;4.780;2023-04-30T00:47:19;7.07;;;6.47;;
15929;SDS011;8064;51.142;4.780;2023-04-30T00:49:45;7.20;;;6.33;;
15929;SDS011;8064;51.142;4.780;2023-04-30T00:52:11;6.73;;;6.13;;
15929;SDS011;8064;51.142;4.780;2023-04-30T00:54:38;6.80;;;6.30;;
15929;SDS011;8064;51.142;4.780;2023-04-30T00:57:04;7.23;;;6.53;;
15929;SDS011;8064;51.142;4.780;2023-04-30T00:59:31;7.23;;;6.53;;
15929;SDS011;8064;51.142;4.780;2023-04-30T01:01:57;7.33;;;6.63;;
15929;SDS011;8064;51.142;4.780;2023-04-30T01:04:23;8.43;;;6.80;;
15929;SDS011;8064;51.142;4.780;2023-04-30T01:06:49;7.77;;;6.37;;
15929;SDS011;8064;51.142;4.780;2023-04-30T01:09:16;7.13;;;6.43;;
15929;SDS011;8064;51.142;4.780;2023-04-30T01:11:47;7.20;;;6.60;;
15929;SDS011;8064;51.142;4.780;2023-04-30T01:19:55;7.47;;;6.77;;
15929;SDS011;8064;51.142;4.780;2023-04-30T01:30:30;7.70;;;6.90;;
15929;SDS011;8064;51.142;4.780;2023-04-30T01:32:56;7.97;;;7.27;;
15929;SDS011;8064;51.142;4.780;2023-04-30T01:35:30;7.60;;;7.00;;
15929;SDS011;8064;51.142;4.780;2023-04-30T01:38:22;8.30;;;7.47;;
15929;SDS011;8064;51.142;4.780;2023-04-30T01:43:54;10.43;;;7.93;;
15929;SDS011;8064;51.142;4.780;2023-04-30T01:52:52;9.43;;;7.67;;
15929;SDS011;8064;51.142;4.780;2023-04-30T01:57:55;9.07;;;8.20;;
15929;SDS011;8064;51.142;4.780;2023-04-30T02:00:25;9.97;;;8.97;;
15929;SDS011;8064;51.142;4.780;2023-04-30T02:02:52;9.67;;;8.77;;
15929;SDS011;8064;51.142;4.780;2023-04-30T02:05:18;11.17;;;8.40;;
15929;SDS011;8064;51.142;4.780;2023-04-30T02:07:44;10.00;;;8.83;;
15929;SDS011;8064;51.142;4.780;2023-04-30T02:10:13;9.70;;;8.80;;
15929;SDS011;8064;51.142;4.780;2023-04-30T02:12:40;10.07;;;9.17;;
15929;SDS011;8064;51.142;4.780;2023-04-30T02:15:06;10.00;;;9.00;;
15929;SDS011;8064;51.142;4.780;2023-04-30T02:17:32;10.10;;;9.20;;
15929;SDS011;8064;51.142;4.780;2023-04-30T02:19:58;9.70;;;8.80;;
15929;SDS011;8064;51.142;4.780;2023-04-30T02:22:24;10.10;;;9.23;;
15929;SDS011;8064;51.142;4.780;2023-04-30T02:24:50;9.63;;;8.77;;
15929;SDS011;8064;51.142;4.780;2023-04-30T02:27:19;9.73;;;8.83;;
15929;SDS011;8064;51.142;4.780;2023-04-30T02:29:46;9.63;;;8.73;;
15929;SDS011;8064;51.142;4.780;2023-04-30T02:32:12;10.10;;;9.10;;
15929;SDS011;8064;51.142;4.780;2023-04-30T02:34:38;10.87;;;9.57;;
15929;SDS011;8064;51.142;4.780;2023-04-30T02:37:05;10.37;;;9.40;;
15929;SDS011;8064;51.142;4.780;2023-04-30T02:39:31;10.33;;;9.33;;
15929;SDS011;8064;51.142;4.780;2023-04-30T02:41:57;10.40;;;9.40;;
15929;SDS011;8064;51.142;4.780;2023-04-30T02:44:23;9.93;;;8.93;;
15929;SDS011;8064;51.142;4.780;2023-04-30T02:46:49;10.10;;;9.30;;
15929;SDS011;8064;51.142;4.780;2023-04-30T02:49:15;10.40;;;9.43;;
15929;SDS011;8064;51.142;4.780;2023-04-30T02:51:41;11.07;;;9.93;;
15929;SDS011;8064;51.142;4.780;2023-04-30T02:54:07;10.23;;;9.10;;
15929;SDS011;8064;51.142;4.780;2023-04-30T02:56:32;10.53;;;9.53;;
15929;SDS011;8064;51.142;4.780;2023-04-30T02:58:58;10.70;;;9.73;;
15929;SDS011;8064;51.142;4.780;2023-04-30T03:01:25;10.97;;;9.97;;
15929;SDS011;8064;51.142;4.780;2023-04-30T03:03:51;9.60;;;8.83;;
15929;SDS011;8064;51.142;4.780;2023-04-30T03:06:16;9.20;;;8.40;;
15929;SDS011;8064;51.142;4.780;2023-04-30T03:08:42;9.97;;;9.07;;
15929;SDS011;8064;51.142;4.780;2023-04-30T03:11:08;9.93;;;9.13;;
15929;SDS011;8064;51.142;4.780;2023-04-30T03:13:34;10.57;;;8.13;;
15929;SDS011;8064;51.142;4.780;2023-04-30T03:16:01;9.77;;;8.87;;
15929;SDS011;8064;51.142;4.780;2023-04-30T03:18:29;10.33;;;9.23;;
15929;SDS011;8064;51.142;4.780;2023-04-30T03:20:55;10.03;;;9.03;;
15929;SDS011;8064;51.142;4.780;2023-04-30T03:23:21;9.63;;;8.73;;
15929;SDS011;8064;51.142;4.780;2023-04-30T03:25:47;9.53;;;8.67;;
15929;SDS011;8064;51.142;4.780;2023-04-30T03:28:13;9.83;;;8.63;;
15929;SDS011;8064;51.142;4.780;2023-04-30T03:30:39;9.87;;;8.87;;
15929;SDS011;8064;51.142;4.780;2023-04-30T03:33:06;10.30;;;9.30;;
15929;SDS011;8064;51.142;4.780;2023-04-30T03:35:32;9.93;;;8.77;;
15929;SDS011;8064;51.142;4.780;2023-04-30T03:37:59;9.20;;;8.30;;
15929;SDS011;8064;51.142;4.780;2023-04-30T03:40:25;9.97;;;8.50;;
15929;SDS011;8064;51.142;4.780;2023-04-30T03:42:51;10.43;;;9.37;;
15929;SDS011;8064;51.142;4.780;2023-04-30T03:45:17;11.60;;;10.23;;
15929;SDS011;8064;51.142;4.780;2023-04-30T03:47:43;10.67;;;8.90;;
15929;SDS011;8064;51.142;4.780;2023-04-30T03:50:09;11.13;;;9.80;;
15929;SDS011;8064;51.142;4.780;2023-04-30T03:52:35;10.40;;;9.40;;
15929;SDS011;8064;51.142;4.780;2023-04-30T03:55:02;11.53;;;10.03;;
15929;SDS011;8064;51.142;4.780;2023-04-30T03:57:29;10.00;;;9.10;;
15929;SDS011;8064;51.142;4.780;2023-04-30T03:59:55;11.10;;;9.93;;
15929;SDS011;8064;51.142;4.780;2023-04-30T04:02:21;10.87;;;9.87;;
15929;SDS011;8064;51.142;4.780;2023-04-30T04:04:47;11.40;;;10.20;;
15929;SDS011;8064;51.142;4.780;2023-04-30T04:07:13;13.20;;;9.47;;
15929;SDS011;8064;51.142;4.780;2023-04-30T04:09:39;10.67;;;9.60;;
15929;SDS011;8064;51.142;4.780;2023-04-30T04:12:05;11.60;;;9.80;;
15929;SDS011;8064;51.142;4.780;2023-04-30T04:14:31;11.20;;;10.10;;
15929;SDS011;8064;51.142;4.780;2023-04-30T04:16:57;10.93;;;9.80;;
15929;SDS011;8064;51.142;4.780;2023-04-30T04:19:24;10.43;;;9.43;;
15929;SDS011;8064;51.142;4.780;2023-04-30T04:21:50;11.23;;;10.13;;
15929;SDS011;8064;51.142;4.780;2023-04-30T04:24:16;10.83;;;9.90;;
15929;SDS011;8064;51.142;4.780;2023-04-30T04:26:42;13.23;;;9.83;;
15929;SDS011;8064;51.142;4.780;2023-04-30T04:29:08;11.50;;;10.33;;
15929;SDS011;8064;51.142;4.780;2023-04-30T04:31:35;11.07;;;10.07;;
15929;SDS011;8064;51.142;4.780;2023-04-30T04:34:01;11.53;;;10.43;;
15929;SDS011;8064;51.142;4.780;2023-04-30T04:36:28;13.30;;;10.33;;
15929;SDS011;8064;51.142;4.780;2023-04-30T04:38:55;11.30;;;10.10;;
15929;SDS011;8064;51.142;4.780;2023-04-30T04:41:26;10.37;;;9.33;;
15929;SDS011;8064;51.142;4.780;2023-04-30T04:43:52;11.53;;;10.53;;
15929;SDS011;8064;51.142;4.780;2023-04-30T04:46:18;12.03;;;10.90;;
15929;SDS011;8064;51.142;4.780;2023-04-30T04:48:44;12.37;;;10.80;;
15929;SDS011;8064;51.142;4.780;2023-04-30T04:51:11;11.80;;;10.70;;
15929;SDS011;8064;51.142;4.780;2023-04-30T04:53:37;12.63;;;11.33;;
15929;SDS011;8064;51.142;4.780;2023-04-30T04:56:03;14.10;;;12.17;;
15929;SDS011;8064;51.142;4.780;2023-04-30T04:58:29;13.00;;;11.63;;
15929;SDS011;8064;51.142;4.780;2023-04-30T05:00:55;15.33;;;11.37;;
15929;SDS011;8064;51.142;4.780;2023-04-30T05:03:21;11.63;;;10.53;;
15929;SDS011;8064;51.142;4.780;2023-04-30T05:05:47;13.50;;;12.20;;
15929;SDS011;8064;51.142;4.780;2023-04-30T05:08:13;14.83;;;12.20;;
15929;SDS011;8064;51.142;4.780;2023-04-30T05:10:38;13.90;;;12.50;;
15929;SDS011;8064;51.142;4.780;2023-04-30T05:13:04;12.70;;;11.60;;
15929;SDS011;8064;51.142;4.780;2023-04-30T05:15:30;13.70;;;12.40;;
15929;SDS011;8064;51.142;4.780;2023-04-30T05:17:56;14.57;;;13.20;;
15929;SDS011;8064;51.142;4.780;2023-04-30T05:20:21;15.07;;;12.77;;
15929;SDS011;8064;51.142;4.780;2023-04-30T05:22:47;14.53;;;12.00;;
15929;SDS011;8064;51.142;4.780;2023-04-30T05:25:13;14.67;;;11.60;;
15929;SDS011;8064;51.142;4.780;2023-04-30T05:27:39;13.73;;;12.33;;
15929;SDS011;8064;51.142;4.780;2023-04-30T05:30:05;15.53;;;12.13;;
15929;SDS011;8064;51.142;4.780;2023-04-30T05:32:31;15.07;;;13.57;;
15929;SDS011;8064;51.142;4.780;2023-04-30T05:34:58;13.57;;;12.33;;
15929;SDS011;8064;51.142;4.780;2023-04-30T05:37:24;15.03;;;13.53;;
15929;SDS011;8064;51.142;4.780;2023-04-30T05:39:50;14.97;;;12.90;;
15929;SDS011;8064;51.142;4.780;2023-04-30T05:42:18;16.67;;;13.17;;
15929;SDS011;8064;51.142;4.780;2023-04-30T05:44:44;13.57;;;12.37;;
15929;SDS011;8064;51.142;4.780;2023-04-30T05:47:10;15.07;;;13.63;;
15929;SDS011;8064;51.142;4.780;2023-04-30T05:49:36;14.67;;;13.27;;
15929;SDS011;8064;51.142;4.780;2023-04-30T05:52:02;14.57;;;13.27;;
15929;SDS011;8064;51.142;4.780;2023-04-30T05:54:28;15.33;;;12.73;;
15929;SDS011;8064;51.142;4.780;2023-04-30T05:56:55;15.47;;;13.87;;
15929;SDS011;8064;51.142;4.780;2023-04-30T05:59:20;14.47;;;13.17;;
15929;SDS011;8064;51.142;4.780;2023-04-30T06:01:46;14.90;;;13.40;;
15929;SDS011;8064;51.142;4.780;2023-04-30T06:04:12;14.53;;;13.20;;
15929;SDS011;8064;51.142;4.780;2023-04-30T06:06:38;14.67;;;13.07;;
15929;SDS011;8064;51.142;4.780;2023-04-30T06:09:04;14.10;;;12.70;;
15929;SDS011;8064;51.142;4.780;2023-04-30T06:11:30;15.03;;;13.73;;
15929;SDS011;8064;51.142;4.780;2023-04-30T06:13:56;14.70;;;13.30;;
15929;SDS011;8064;51.142;4.780;2023-04-30T06:16:22;14.87;;;13.50;;
15929;SDS011;8064;51.142;4.780;2023-04-30T06:18:48;14.87;;;13.47;;
15929;SDS011;8064;51.142;4.780;2023-04-30T06:21:14;15.03;;;13.63;;
15929;SDS011;8064;51.142;4.780;2023-04-30T06:23:40;14.97;;;13.63;;
15929;SDS011;8064;51.142;4.780;2023-04-30T06:26:06;15.03;;;13.77;;
15929;SDS011;8064;51.142;4.780;2023-04-30T06:28:31;16.20;;;14.60;;
15929;SDS011;8064;51.142;4.780;2023-04-30T06:30:57;15.13;;;13.77;;
15929;SDS011;8064;51.142;4.780;2023-04-30T06:33:23;15.37;;;13.97;;
15929;SDS011;8064;51.142;4.780;2023-04-30T06:35:49;14.20;;;12.87;;
15929;SDS011;8064;51.142;4.780;2023-04-30T06:38:18;15.67;;;14.07;;
15929;SDS011;8064;51.142;4.780;2023-04-30T06:40:44;15.33;;;13.93;;
15929;SDS011;8064;51.142;4.780;2023-04-30T06:43:10;14.97;;;13.40;;
15929;SDS011;8064;51.142;4.780;2023-04-30T06:45:36;14.57;;;13.17;;
15929;SDS011;8064;51.142;4.780;2023-04-30T06:48:02;15.77;;;14.17;;
15929;SDS011;8064;51.142;4.780;2023-04-30T06:50:28;14.63;;;13.20;;
15929;SDS011;8064;51.142;4.780;2023-04-30T06:52:54;14.33;;;12.93;;
15929;SDS011;8064;51.142;4.780;2023-04-30T06:55:20;14.70;;;13.37;;
15929;SDS011;8064;51.142;4.780;2023-04-30T06:57:46;15.27;;;13.60;;
15929;SDS011;8064;51.142;4.780;2023-04-30T07:00:12;14.37;;;12.67;;
15929;SDS011;8064;51.142;4.780;2023-04-30T07:02:39;14.10;;;12.80;;
15929;SDS011;8064;51.142;4.780;2023-04-30T07:05:05;14.13;;;12.63;;
15929;SDS011;8064;51.142;4.780;2023-04-30T07:07:31;14.33;;;12.93;;
15929;SDS011;8064;51.142;4.780;2023-04-30T07:09:58;13.40;;;12.30;;
15929;SDS011;8064;51.142;4.780;2023-04-30T07:12:24;14.13;;;12.83;;
15929;SDS011;8064;51.142;4.780;2023-04-30T07:14:50;13.53;;;12.33;;
15929;SDS011;8064;51.142;4.780;2023-04-30T07:17:16;14.00;;;12.70;;
15929;SDS011;8064;51.142;4.780;2023-04-30T07:19:42;14.17;;;12.77;;
15929;SDS011;8064;51.142;4.780;2023-04-30T07:22:08;14.03;;;12.73;;
15929;SDS011;8064;51.142;4.780;2023-04-30T07:24:34;13.77;;;12.40;;
15929;SDS011;8064;51.142;4.780;2023-04-30T07:26:59;13.80;;;12.47;;
15929;SDS011;8064;51.142;4.780;2023-04-30T07:29:27;14.10;;;12.60;;
15929;SDS011;8064;51.142;4.780;2023-04-30T07:31:54;13.20;;;11.97;;
15929;SDS011;8064;51.142;4.780;2023-04-30T07:34:20;13.10;;;11.90;;
15929;SDS011;8064;51.142;4.780;2023-04-30T07:36:47;13.67;;;12.37;;
15929;SDS011;8064;51.142;4.780;2023-04-30T07:39:13;13.47;;;12.37;;
15929;SDS011;8064;51.142;4.780;2023-04-30T07:41:39;13.23;;;12.03;;
15929;SDS011;8064;51.142;4.780;2023-04-30T07:44:04;14.10;;;12.70;;
15929;SDS011;8064;51.142;4.780;2023-04-30T07:46:30;14.63;;;13.33;;
15929;SDS011;8064;51.142;4.780;2023-04-30T07:48:57;13.37;;;12.17;;
15929;SDS011;8064;51.142;4.780;2023-04-30T07:51:23;13.57;;;12.17;;
15929;SDS011;8064;51.142;4.780;2023-04-30T07:53:49;13.30;;;12.00;;
15929;SDS011;8064;51.142;4.780;2023-04-30T07:56:17;13.57;;;12.40;;
15929;SDS011;8064;51.142;4.780;2023-04-30T07:58:43;14.90;;;13.40;;
15929;SDS011;8064;51.142;4.780;2023-04-30T08:01:08;14.37;;;13.13;;
15929;SDS011;8064;51.142;4.780;2023-04-30T08:03:34;13.73;;;12.33;;
15929;SDS011;8064;51.142;4.780;2023-04-30T08:06:00;14.37;;;13.07;;
15929;SDS011;8064;51.142;4.780;2023-04-30T08:08:27;13.20;;;11.80;;
15929;SDS011;8064;51.142;4.780;2023-04-30T08:10:52;13.90;;;12.63;;
15929;SDS011;8064;51.142;4.780;2023-04-30T08:13:18;13.73;;;12.50;;
15929;SDS011;8064;51.142;4.780;2023-04-30T08:15:44;14.17;;;12.83;;
15929;SDS011;8064;51.142;4.780;2023-04-30T08:18:10;14.50;;;11.70;;
15929;SDS011;8064;51.142;4.780;2023-04-30T08:20:36;13.33;;;12.03;;
15929;SDS011;8064;51.142;4.780;2023-04-30T08:23:02;13.20;;;12.00;;
15929;SDS011;8064;51.142;4.780;2023-04-30T08:25:28;13.90;;;12.70;;
15929;SDS011;8064;51.142;4.780;2023-04-30T08:27:55;12.70;;;11.47;;
15929;SDS011;8064;51.142;4.780;2023-04-30T08:30:21;13.27;;;12.07;;
15929;SDS011;8064;51.142;4.780;2023-04-30T08:32:47;13.23;;;11.97;;
15929;SDS011;8064;51.142;4.780;2023-04-30T08:35:13;13.57;;;12.23;;
15929;SDS011;8064;51.142;4.780;2023-04-30T08:37:41;12.37;;;11.07;;
15929;SDS011;8064;51.142;4.780;2023-04-30T08:40:07;13.43;;;12.23;;
15929;SDS011;8064;51.142;4.780;2023-04-30T08:42:36;13.00;;;11.80;;
15929;SDS011;8064;51.142;4.780;2023-04-30T08:45:07;12.07;;;10.97;;
15929;SDS011;8064;51.142;4.780;2023-04-30T08:47:36;12.50;;;11.20;;
15929;SDS011;8064;51.142;4.780;2023-04-30T08:50:03;13.60;;;12.40;;
15929;SDS011;8064;51.142;4.780;2023-04-30T08:52:30;12.97;;;11.97;;
15929;SDS011;8064;51.142;4.780;2023-04-30T08:55:00;13.68;;;12.45;;
15929;SDS011;8064;51.142;4.780;2023-04-30T08:57:26;13.02;;;11.93;;
15929;SDS011;8064;51.142;4.780;2023-04-30T08:59:53;11.93;;;10.93;;
15929;SDS011;8064;51.142;4.780;2023-04-30T09:02:19;12.43;;;11.33;;
15929;SDS011;8064;51.142;4.780;2023-04-30T09:04:44;11.43;;;10.52;;
15929;SDS011;8064;51.142;4.780;2023-04-30T09:07:11;12.23;;;11.13;;
15929;SDS011;8064;51.142;4.780;2023-04-30T09:09:38;13.05;;;11.80;;
15929;SDS011;8064;51.142;4.780;2023-04-30T09:12:14;12.32;;;11.27;;
15929;SDS011;8064;51.142;4.780;2023-04-30T09:17:29;11.70;;;10.52;;
15929;SDS011;8064;51.142;4.780;2023-04-30T09:20:05;11.25;;;10.35;;
15929;SDS011;8064;51.142;4.780;2023-04-30T09:22:31;11.63;;;10.73;;
15929;SDS011;8064;51.142;4.780;2023-04-30T09:24:58;10.95;;;9.85;;
15929;SDS011;8064;51.142;4.780;2023-04-30T09:27:24;9.93;;;9.13;;
15929;SDS011;8064;51.142;4.780;2023-04-30T09:29:49;8.32;;;7.72;;
15929;SDS011;8064;51.142;4.780;2023-04-30T09:32:15;9.60;;;7.47;;
15929;SDS011;8064;51.142;4.780;2023-04-30T09:34:41;8.65;;;7.93;;
15929;SDS011;8064;51.142;4.780;2023-04-30T09:37:08;8.75;;;7.78;;
15929;SDS011;8064;51.142;4.780;2023-04-30T09:39:46;8.43;;;7.65;;
15929;SDS011;8064;51.142;4.780;2023-04-30T09:42:15;8.10;;;7.47;;
15929;SDS011;8064;51.142;4.780;2023-04-30T09:44:44;8.57;;;7.75;;
15929;SDS011;8064;51.142;4.780;2023-04-30T09:47:12;8.45;;;7.85;;
15929;SDS011;8064;51.142;4.780;2023-04-30T09:49:41;7.85;;;7.15;;
15929;SDS011;8064;51.142;4.780;2023-04-30T09:52:09;7.03;;;6.40;;
15929;SDS011;8064;51.142;4.780;2023-04-30T09:54:37;7.38;;;6.68;;
15929;SDS011;8064;51.142;4.780;2023-04-30T09:57:03;7.75;;;7.15;;
15929;SDS011;8064;51.142;4.780;2023-04-30T09:59:29;8.95;;;6.72;;
15929;SDS011;8064;51.142;4.780;2023-04-30T10:01:59;7.38;;;6.82;;
15929;SDS011;8064;51.142;4.780;2023-04-30T10:04:28;7.75;;;6.95;;
15929;SDS011;8064;51.142;4.780;2023-04-30T10:06:57;6.88;;;6.45;;
15929;SDS011;8064;51.142;4.780;2023-04-30T10:09:25;7.63;;;7.03;;
15929;SDS011;8064;51.142;4.780;2023-04-30T10:11:57;8.02;;;7.28;;
15929;SDS011;8064;51.142;4.780;2023-04-30T10:14:25;7.18;;;6.68;;
15929;SDS011;8064;51.142;4.780;2023-04-30T10:17:01;7.70;;;7.00;;
15929;SDS011;8064;51.142;4.780;2023-04-30T10:19:33;8.23;;;7.60;;
15929;SDS011;8064;51.142;4.780;2023-04-30T10:22:03;8.52;;;7.78;;
15929;SDS011;8064;51.142;4.780;2023-04-30T10:24:29;8.90;;;8.20;;
15929;SDS011;8064;51.142;4.780;2023-04-30T10:26:55;7.93;;;7.32;;
15929;SDS011;8064;51.142;4.780;2023-04-30T10:29:22;8.68;;;8.00;;
15929;SDS011;8064;51.142;4.780;2023-04-30T10:31:48;8.68;;;7.88;;
15929;SDS011;8064;51.142;4.780;2023-04-30T10:36:53;8.18;;;7.57;;
15929;SDS011;8064;51.142;4.780;2023-04-30T10:39:24;7.97;;;7.28;;
15929;SDS011;8064;51.142;4.780;2023-04-30T10:42:05;7.40;;;6.78;;
15929;SDS011;8064;51.142;4.780;2023-04-30T10:44:35;8.27;;;7.57;;
15929;SDS011;8064;51.142;4.780;2023-04-30T10:47:02;6.85;;;6.43;;
15929;SDS011;8064;51.142;4.780;2023-04-30T10:49:30;7.20;;;6.68;;
15929;SDS011;8064;51.142;4.780;2023-04-30T10:51:58;7.60;;;7.10;;
15929;SDS011;8064;51.142;4.780;2023-04-30T10:54:27;7.00;;;6.40;;
15929;SDS011;8064;51.142;4.780;2023-04-30T10:57:10;6.97;;;6.47;;
15929;SDS011;8064;51.142;4.780;2023-04-30T10:59:37;6.85;;;6.35;;
15929;SDS011;8064;51.142;4.780;2023-04-30T11:02:07;6.70;;;6.30;;
15929;SDS011;8064;51.142;4.780;2023-04-30T11:05:07;6.75;;;6.25;;
15929;SDS011;8064;51.142;4.780;2023-04-30T11:07:32;6.55;;;6.10;;
15929;SDS011;8064;51.142;4.780;2023-04-30T11:09:59;7.30;;;6.70;;
15929;SDS011;8064;51.142;4.780;2023-04-30T11:12:26;5.90;;;5.50;;
15929;SDS011;8064;51.142;4.780;2023-04-30T11:14:59;6.20;;;5.63;;
15929;SDS011;8064;51.142;4.780;2023-04-30T11:17:30;6.07;;;5.65;;
15929;SDS011;8064;51.142;4.780;2023-04-30T11:19:58;6.53;;;5.82;;
15929;SDS011;8064;51.142;4.780;2023-04-30T11:22:26;6.18;;;5.68;;
15929;SDS011;8064;51.142;4.780;2023-04-30T11:25:04;5.85;;;5.35;;
15929;SDS011;8064;51.142;4.780;2023-04-30T11:27:34;6.65;;;6.15;;
15929;SDS011;8064;51.142;4.780;2023-04-30T11:30:02;6.38;;;5.97;;
15929;SDS011;8064;51.142;4.780;2023-04-30T11:32:34;6.68;;;6.28;;
15929;SDS011;8064;51.142;4.780;2023-04-30T11:35:02;6.65;;;6.15;;
15929;SDS011;8064;51.142;4.780;2023-04-30T11:37:30;6.00;;;5.60;;
15929;SDS011;8064;51.142;4.780;2023-04-30T11:40:00;6.10;;;5.60;;
15929;SDS011;8064;51.142;4.780;2023-04-30T11:42:28;6.63;;;6.22;;
15929;SDS011;8064;51.142;4.780;2023-04-30T11:45:01;6.85;;;6.45;;
15929;SDS011;8064;51.142;4.780;2023-04-30T11:47:37;6.50;;;6.10;;
15929;SDS011;8064;51.142;4.780;2023-04-30T11:50:05;6.88;;;6.28;;
15929;SDS011;8064;51.142;4.780;2023-04-30T11:52:32;6.10;;;5.70;;
15929;SDS011;8064;51.142;4.780;2023-04-30T11:54:58;6.22;;;5.80;;
15929;SDS011;8064;51.142;4.780;2023-04-30T11:57:24;6.97;;;6.47;;
15929;SDS011;8064;51.142;4.780;2023-04-30T11:59:50;6.82;;;6.32;;
15929;SDS011;8064;51.142;4.780;2023-04-30T12:02:16;6.60;;;6.10;;
15929;SDS011;8064;51.142;4.780;2023-04-30T12:04:42;6.57;;;6.18;;
15929;SDS011;8064;51.142;4.780;2023-04-30T12:07:08;6.28;;;5.88;;
15929;SDS011;8064;51.142;4.780;2023-04-30T12:09:50;6.65;;;6.25;;
15929;SDS011;8064;51.142;4.780;2023-04-30T12:12:28;6.15;;;5.75;;
15929;SDS011;8064;51.142;4.780;2023-04-30T12:14:53;7.00;;;6.40;;
15929;SDS011;8064;51.142;4.780;2023-04-30T12:20:04;6.68;;;6.28;;
15929;SDS011;8064;51.142;4.780;2023-04-30T12:22:31;6.57;;;6.18;;
15929;SDS011;8064;51.142;4.780;2023-04-30T12:24:57;6.22;;;5.72;;
15929;SDS011;8064;51.142;4.780;2023-04-30T12:27:24;6.28;;;5.95;;
15929;SDS011;8064;51.142;4.780;2023-04-30T12:29:50;6.25;;;5.85;;
15929;SDS011;8064;51.142;4.780;2023-04-30T12:32:19;6.72;;;6.30;;
15929;SDS011;8064;51.142;4.780;2023-04-30T12:34:46;6.80;;;6.13;;
15929;SDS011;8064;51.142;4.780;2023-04-30T12:37:14;6.53;;;6.03;;
15929;SDS011;8064;51.142;4.780;2023-04-30T12:39:40;6.65;;;6.25;;
15929;SDS011;8064;51.142;4.780;2023-04-30T12:42:07;5.78;;;5.43;;
15929;SDS011;8064;51.142;4.780;2023-04-30T12:44:40;5.65;;;5.35;;
15929;SDS011;8064;51.142;4.780;2023-04-30T12:47:08;6.53;;;6.13;;
15929;SDS011;8064;51.142;4.780;2023-04-30T12:49:34;6.05;;;5.65;;
15929;SDS011;8064;51.142;4.780;2023-04-30T12:52:03;6.28;;;5.88;;
15929;SDS011;8064;51.142;4.780;2023-04-30T12:54:32;6.00;;;5.60;;
15929;SDS011;8064;51.142;4.780;2023-04-30T12:57:11;6.63;;;6.13;;
15929;SDS011;8064;51.142;4.780;2023-04-30T12:59:38;6.95;;;6.55;;
15929;SDS011;8064;51.142;4.780;2023-04-30T13:02:21;5.85;;;5.45;;
15929;SDS011;8064;51.142;4.780;2023-04-30T13:04:48;6.03;;;5.63;;
15929;SDS011;8064;51.142;4.780;2023-04-30T13:07:15;6.28;;;5.90;;
15929;SDS011;8064;51.142;4.780;2023-04-30T13:09:41;6.47;;;6.07;;
15929;SDS011;8064;51.142;4.780;2023-04-30T13:12:07;6.23;;;5.83;;
15929;SDS011;8064;51.142;4.780;2023-04-30T13:14:33;5.97;;;5.68;;
15929;SDS011;8064;51.142;4.780;2023-04-30T13:16:59;6.18;;;5.78;;
15929;SDS011;8064;51.142;4.780;2023-04-30T13:19:29;7.75;;;5.72;;
15929;SDS011;8064;51.142;4.780;2023-04-30T13:21:54;6.07;;;5.68;;
15929;SDS011;8064;51.142;4.780;2023-04-30T13:24:20;6.28;;;5.97;;
15929;SDS011;8064;51.142;4.780;2023-04-30T13:26:46;6.32;;;6.03;;
15929;SDS011;8064;51.142;4.780;2023-04-30T13:29:12;6.63;;;6.22;;
15929;SDS011;8064;51.142;4.780;2023-04-30T13:31:38;7.05;;;6.55;;
15929;SDS011;8064;51.142;4.780;2023-04-30T13:34:04;6.95;;;6.43;;
15929;SDS011;8064;51.142;4.780;2023-04-30T13:36:30;7.07;;;6.35;;
15929;SDS011;8064;51.142;4.780;2023-04-30T13:38:57;6.05;;;5.65;;
15929;SDS011;8064;51.142;4.780;2023-04-30T13:41:22;6.57;;;6.10;;
15929;SDS011;8064;51.142;4.780;2023-04-30T13:43:50;6.68;;;6.25;;
15929;SDS011;8064;51.142;4.780;2023-04-30T13:46:16;7.40;;;6.85;;
15929;SDS011;8064;51.142;4.780;2023-04-30T13:48:42;6.72;;;6.28;;
15929;SDS011;8064;51.142;4.780;2023-04-30T13:51:07;7.03;;;6.47;;
15929;SDS011;8064;51.142;4.780;2023-04-30T13:53:33;5.97;;;5.57;;
15929;SDS011;8064;51.142;4.780;2023-04-30T13:56:01;6.43;;;5.70;;
15929;SDS011;8064;51.142;4.780;2023-04-30T13:58:27;6.05;;;5.65;;
15929;SDS011;8064;51.142;4.780;2023-04-30T14:00:53;6.70;;;6.20;;
15929;SDS011;8064;51.142;4.780;2023-04-30T14:03:19;6.32;;;5.88;;
15929;SDS011;8064;51.142;4.780;2023-04-30T14:05:45;6.93;;;6.53;;
15929;SDS011;8064;51.142;4.780;2023-04-30T14:08:11;6.97;;;6.38;;
15929;SDS011;8064;51.142;4.780;2023-04-30T14:10:36;6.53;;;6.03;;
15929;SDS011;8064;51.142;4.780;2023-04-30T14:13:02;6.32;;;5.93;;
15929;SDS011;8064;51.142;4.780;2023-04-30T14:15:28;6.15;;;5.72;;
15929;SDS011;8064;51.142;4.780;2023-04-30T14:17:56;6.13;;;5.70;;
15929;SDS011;8064;51.142;4.780;2023-04-30T14:20:22;5.93;;;5.60;;
15929;SDS011;8064;51.142;4.780;2023-04-30T14:22:49;6.28;;;5.85;;
15929;SDS011;8064;51.142;4.780;2023-04-30T14:25:14;6.05;;;5.63;;
15929;SDS011;8064;51.142;4.780;2023-04-30T14:27:41;6.20;;;5.82;;
15929;SDS011;8064;51.142;4.780;2023-04-30T14:30:07;5.40;;;4.97;;
15929;SDS011;8064;51.142;4.780;2023-04-30T14:32:34;5.85;;;5.45;;
15929;SDS011;8064;51.142;4.780;2023-04-30T14:35:00;6.72;;;5.97;;
15929;SDS011;8064;51.142;4.780;2023-04-30T14:37:27;5.50;;;5.18;;
15929;SDS011;8064;51.142;4.780;2023-04-30T14:39:53;5.95;;;5.65;;
15929;SDS011;8064;51.142;4.780;2023-04-30T14:42:19;6.18;;;5.80;;
15929;SDS011;8064;51.142;4.780;2023-04-30T14:44:44;5.78;;;5.40;;
15929;SDS011;8064;51.142;4.780;2023-04-30T14:47:10;6.40;;;5.90;;
15929;SDS011;8064;51.142;4.780;2023-04-30T14:49:37;7.97;;;5.70;;
15929;SDS011;8064;51.142;4.780;2023-04-30T14:52:02;5.80;;;5.50;;
15929;SDS011;8064;51.142;4.780;2023-04-30T14:54:28;5.85;;;5.45;;
15929;SDS011;8064;51.142;4.780;2023-04-30T14:56:54;6.75;;;5.15;;
15929;SDS011;8064;51.142;4.780;2023-04-30T14:59:20;5.13;;;4.82;;
15929;SDS011;8064;51.142;4.780;2023-04-30T15:01:45;5.95;;;5.55;;
15929;SDS011;8064;51.142;4.780;2023-04-30T15:04:11;6.13;;;5.82;;
15929;SDS011;8064;51.142;4.780;2023-04-30T15:06:37;5.32;;;5.03;;
15929;SDS011;8064;51.142;4.780;2023-04-30T15:09:03;5.75;;;5.35;;
15929;SDS011;8064;51.142;4.780;2023-04-30T15:11:28;5.97;;;5.50;;
15929;SDS011;8064;51.142;4.780;2023-04-30T15:13:54;5.85;;;5.40;;
15929;SDS011;8064;51.142;4.780;2023-04-30T15:16:20;6.75;;;6.25;;
15929;SDS011;8064;51.142;4.780;2023-04-30T15:18:46;6.22;;;5.63;;
15929;SDS011;8064;51.142;4.780;2023-04-30T15:21:13;6.10;;;5.70;;
15929;SDS011;8064;51.142;4.780;2023-04-30T15:23:39;5.13;;;4.83;;